sensor_id;sensor_type;location;lat;lon;timestamp;pressure;altitude;pressure_sealevel;temperature;humidity
10460;BME280;54412;51.206;6.888;2022-12-05T00:01:32;100897.59;;;5.06;73.15
10460;BME280;54412;51.206;6.888;2022-12-05T00:04:07;100895.88;;;5.05;73.22
10460;BME280;54412;51.206;6.888;2022-12-05T00:06:34;100908.88;;;5.08;73.26
10460;BME280;54412;51.206;6.888;2022-12-05T00:09:02;100899.34;;;5.05;73.00
10460;BME280;54412;51.206;6.888;2022-12-05T00:11:31;100906.66;;;4.90;73.61
10460;BME280;54412;51.206;6.888;2022-12-05T00:13:59;100900.03;;;5.13;72.72
10460;BME280;54412;51.206;6.888;2022-12-05T00:16:28;100909.56;;;5.16;72.62
10460;BME280;54412;51.206;6.888;2022-12-05T00:18:54;100910.22;;;5.24;72.56
10460;BME280;54412;51.206;6.888;2022-12-05T00:21:28;100904.44;;;5.11;72.49
10460;BME280;54412;51.206;6.888;2022-12-05T00:23:55;100912.78;;;5.25;72.53
10460;BME280;54412;51.206;6.888;2022-12-05T00:26:22;100915.50;;;5.22;72.44
10460;BME280;54412;51.206;6.888;2022-12-05T00:28:49;100906.63;;;4.91;73.33
10460;BME280;54412;51.206;6.888;2022-12-05T00:31:22;100909.97;;;4.98;72.91
10460;BME280;54412;51.206;6.888;2022-12-05T00:33:48;100912.69;;;4.93;73.38
10460;BME280;54412;51.206;6.888;2022-12-05T00:36:31;100919.44;;;5.02;73.08
10460;BME280;54412;51.206;6.888;2022-12-05T00:39:06;100913.00;;;5.18;72.77
10460;BME280;54412;51.206;6.888;2022-12-05T00:41:32;100916.50;;;5.17;72.56
10460;BME280;54412;51.206;6.888;2022-12-05T00:44:00;100908.63;;;4.82;73.48
10460;BME280;54412;51.206;6.888;2022-12-05T00:46:29;100915.25;;;4.96;73.72
10460;BME280;54412;51.206;6.888;2022-12-05T00:48:57;100910.47;;;5.13;72.77
10460;BME280;54412;51.206;6.888;2022-12-05T00:51:34;100902.78;;;5.07;72.76
10460;BME280;54412;51.206;6.888;2022-12-05T00:54:03;100903.97;;;4.94;73.13
10460;BME280;54412;51.206;6.888;2022-12-05T00:56:30;100896.97;;;4.95;73.46
10460;BME280;54412;51.206;6.888;2022-12-05T00:58:58;100896.53;;;4.76;73.61
10460;BME280;54412;51.206;6.888;2022-12-05T01:01:31;100899.56;;;4.96;73.42
10460;BME280;54412;51.206;6.888;2022-12-05T01:04:06;100897.66;;;5.03;72.72
10460;BME280;54412;51.206;6.888;2022-12-05T01:06:32;100893.59;;;4.90;73.54
10460;BME280;54412;51.206;6.888;2022-12-05T01:08:58;100899.50;;;4.99;73.29
10460;BME280;54412;51.206;6.888;2022-12-05T01:11:25;100902.19;;;4.96;73.00
10460;BME280;54412;51.206;6.888;2022-12-05T01:13:52;100895.78;;;5.08;72.98
10460;BME280;54412;51.206;6.888;2022-12-05T01:16:26;100889.78;;;5.04;73.00
10460;BME280;54412;51.206;6.888;2022-12-05T01:18:53;100891.31;;;5.13;72.79
10460;BME280;54412;51.206;6.888;2022-12-05T01:21:20;100898.84;;;4.90;73.37
10460;BME280;54412;51.206;6.888;2022-12-05T01:23:46;100899.25;;;5.10;73.03
10460;BME280;54412;51.206;6.888;2022-12-05T01:26:15;100899.88;;;4.83;74.11
10460;BME280;54412;51.206;6.888;2022-12-05T01:28:41;100901.47;;;4.88;74.04
10460;BME280;54412;51.206;6.888;2022-12-05T01:31:19;100899.03;;;4.81;74.44
10460;BME280;54412;51.206;6.888;2022-12-05T01:33:47;100903.78;;;5.02;73.81
10460;BME280;54412;51.206;6.888;2022-12-05T01:36:13;100911.56;;;5.05;73.36
10460;BME280;54412;51.206;6.888;2022-12-05T01:38:40;100910.69;;;5.04;73.33
10460;BME280;54412;51.206;6.888;2022-12-05T01:41:10;100911.44;;;5.09;73.28
10460;BME280;54412;51.206;6.888;2022-12-05T01:46:28;100911.59;;;5.02;73.21
10460;BME280;54412;51.206;6.888;2022-12-05T01:49:09;100910.59;;;5.09;72.99
10460;BME280;54412;51.206;6.888;2022-12-05T01:51:39;100918.28;;;5.15;73.10
10460;BME280;54412;51.206;6.888;2022-12-05T01:54:07;100921.09;;;5.06;73.15
10460;BME280;54412;51.206;6.888;2022-12-05T01:56:35;100911.19;;;4.83;73.72
10460;BME280;54412;51.206;6.888;2022-12-05T01:59:03;100926.16;;;5.13;72.81
10460;BME280;54412;51.206;6.888;2022-12-05T02:01:30;100918.88;;;4.91;73.64
10460;BME280;54412;51.206;6.888;2022-12-05T02:03:57;100921.97;;;5.06;73.30
10460;BME280;54412;51.206;6.888;2022-12-05T02:06:25;100927.75;;;5.20;72.84
10460;BME280;54412;51.206;6.888;2022-12-05T02:08:55;100921.94;;;5.08;72.68
10460;BME280;54412;51.206;6.888;2022-12-05T02:11:24;100918.38;;;5.12;72.49
10460;BME280;54412;51.206;6.888;2022-12-05T02:14:13;100924.06;;;4.92;73.40
10460;BME280;54412;51.206;6.888;2022-12-05T02:16:57;100925.91;;;4.87;73.98
10460;BME280;54412;51.206;6.888;2022-12-05T02:19:57;100927.00;;;5.15;73.30
10460;BME280;54412;51.206;6.888;2022-12-05T02:22:45;100926.91;;;5.18;72.39
10460;BME280;54412;51.206;6.888;2022-12-05T02:32:00;100921.81;;;5.14;72.82
10460;BME280;54412;51.206;6.888;2022-12-05T02:34:49;100922.03;;;5.05;73.08
10460;BME280;54412;51.206;6.888;2022-12-05T02:37:27;100914.00;;;5.11;72.58
10460;BME280;54412;51.206;6.888;2022-12-05T02:40:13;100913.56;;;4.94;73.34
10460;BME280;54412;51.206;6.888;2022-12-05T02:43:52;100919.41;;;5.05;72.80
10460;BME280;54412;51.206;6.888;2022-12-05T02:45:51;100913.66;;;5.26;72.42
10460;BME280;54412;51.206;6.888;2022-12-05T02:48:20;100915.13;;;5.01;73.42
10460;BME280;54412;51.206;6.888;2022-12-05T02:50:49;100923.81;;;5.03;73.45
10460;BME280;54412;51.206;6.888;2022-12-05T02:53:18;100921.28;;;5.00;73.40
10460;BME280;54412;51.206;6.888;2022-12-05T02:55:46;100922.28;;;5.29;72.73
10460;BME280;54412;51.206;6.888;2022-12-05T02:58:25;100927.91;;;5.13;73.47
10460;BME280;54412;51.206;6.888;2022-12-05T03:00:58;100929.41;;;4.86;74.20
10460;BME280;54412;51.206;6.888;2022-12-05T03:03:25;100930.59;;;5.10;73.63
10460;BME280;54412;51.206;6.888;2022-12-05T03:06:25;100936.53;;;4.80;74.11
10460;BME280;54412;51.206;6.888;2022-12-05T03:09:04;100937.53;;;5.11;73.17
10460;BME280;54412;51.206;6.888;2022-12-05T03:11:41;100930.81;;;5.01;73.61
10460;BME280;54412;51.206;6.888;2022-12-05T03:14:17;100931.97;;;4.88;74.11
10460;BME280;54412;51.206;6.888;2022-12-05T03:16:50;100935.75;;;5.14;73.32
10460;BME280;54412;51.206;6.888;2022-12-05T03:19:25;100934.97;;;5.09;73.12
10460;BME280;54412;51.206;6.888;2022-12-05T03:21:59;100940.56;;;5.31;72.58
10460;BME280;54412;51.206;6.888;2022-12-05T03:24:26;100935.41;;;5.28;72.84
10460;BME280;54412;51.206;6.888;2022-12-05T03:26:59;100945.25;;;5.17;73.02
10460;BME280;54412;51.206;6.888;2022-12-05T03:30:14;100931.59;;;5.04;73.13
10460;BME280;54412;51.206;6.888;2022-12-05T03:32:44;100935.72;;;5.16;73.04
10460;BME280;54412;51.206;6.888;2022-12-05T03:38:15;100938.69;;;4.99;73.98
10460;BME280;54412;51.206;6.888;2022-12-05T03:41:08;100932.75;;;4.91;74.62
10460;BME280;54412;51.206;6.888;2022-12-05T03:46:54;100936.16;;;4.95;73.99
10460;BME280;54412;51.206;6.888;2022-12-05T03:49:30;100934.22;;;5.04;74.19
10460;BME280;54412;51.206;6.888;2022-12-05T03:52:13;100935.09;;;5.05;74.59
10460;BME280;54412;51.206;6.888;2022-12-05T03:54:48;100930.94;;;4.95;75.09
10460;BME280;54412;51.206;6.888;2022-12-05T03:57:41;100938.75;;;4.98;75.46
10460;BME280;54412;51.206;6.888;2022-12-05T04:00:13;100933.56;;;4.96;75.72
10460;BME280;54412;51.206;6.888;2022-12-05T04:03:05;100939.28;;;5.12;74.78
10460;BME280;54412;51.206;6.888;2022-12-05T04:05:44;100935.03;;;5.06;75.51
10460;BME280;54412;51.206;6.888;2022-12-05T04:08:22;100940.69;;;4.88;76.17
10460;BME280;54412;51.206;6.888;2022-12-05T04:10:52;100935.38;;;4.93;76.18
10460;BME280;54412;51.206;6.888;2022-12-05T04:13:30;100941.34;;;4.98;76.46
10460;BME280;54412;51.206;6.888;2022-12-05T04:16:33;100942.94;;;5.05;76.22
10460;BME280;54412;51.206;6.888;2022-12-05T04:19:36;100943.09;;;4.97;77.19
10460;BME280;54412;51.206;6.888;2022-12-05T04:22:24;100939.97;;;4.82;77.06
10460;BME280;54412;51.206;6.888;2022-12-05T04:24:53;100949.22;;;4.96;76.82
10460;BME280;54412;51.206;6.888;2022-12-05T04:33:41;100951.97;;;4.90;76.73
10460;BME280;54412;51.206;6.888;2022-12-05T04:36:44;100960.00;;;4.81;76.79
10460;BME280;54412;51.206;6.888;2022-12-05T04:39:35;100963.72;;;4.71;76.57
10460;BME280;54412;51.206;6.888;2022-12-05T04:42:14;100966.78;;;4.90;76.33
10460;BME280;54412;51.206;6.888;2022-12-05T04:44:52;100962.06;;;5.07;75.64
10460;BME280;54412;51.206;6.888;2022-12-05T04:47:23;100967.09;;;4.76;75.82
10460;BME280;54412;51.206;6.888;2022-12-05T04:49:53;100966.50;;;5.02;75.99
10460;BME280;54412;51.206;6.888;2022-12-05T04:52:21;100961.31;;;4.61;76.94
10460;BME280;54412;51.206;6.888;2022-12-05T04:54:58;100958.00;;;4.53;78.00
10460;BME280;54412;51.206;6.888;2022-12-05T04:57:47;100963.97;;;4.58;77.80
10460;BME280;54412;51.206;6.888;2022-12-05T05:00:15;100964.09;;;4.52;78.08
10460;BME280;54412;51.206;6.888;2022-12-05T05:02:48;100964.72;;;4.64;78.17
10460;BME280;54412;51.206;6.888;2022-12-05T05:05:18;100954.03;;;4.76;77.83
10460;BME280;54412;51.206;6.888;2022-12-05T05:07:49;100962.66;;;4.80;76.98
10460;BME280;54412;51.206;6.888;2022-12-05T05:10:26;100965.22;;;4.81;76.82
10460;BME280;54412;51.206;6.888;2022-12-05T05:12:55;100960.69;;;4.91;76.81
10460;BME280;54412;51.206;6.888;2022-12-05T05:15:21;100966.78;;;4.90;76.43
10460;BME280;54412;51.206;6.888;2022-12-05T05:17:46;100966.16;;;4.79;76.63
10460;BME280;54412;51.206;6.888;2022-12-05T05:20:12;100968.53;;;4.89;76.44
10460;BME280;54412;51.206;6.888;2022-12-05T05:22:56;100969.03;;;4.67;77.45
10460;BME280;54412;51.206;6.888;2022-12-05T05:25:23;100972.34;;;4.75;77.71
10460;BME280;54412;51.206;6.888;2022-12-05T05:27:53;100969.69;;;4.76;77.27
10460;BME280;54412;51.206;6.888;2022-12-05T05:30:21;100985.19;;;4.85;77.32
10460;BME280;54412;51.206;6.888;2022-12-05T05:32:48;100977.44;;;4.81;77.18
10460;BME280;54412;51.206;6.888;2022-12-05T05:35:14;100985.59;;;4.64;77.83
10460;BME280;54412;51.206;6.888;2022-12-05T05:37:41;100981.91;;;4.76;77.52
10460;BME280;54412;51.206;6.888;2022-12-05T05:40:09;100983.75;;;4.71;77.00
10460;BME280;54412;51.206;6.888;2022-12-05T05:42:41;100982.81;;;4.75;77.50
10460;BME280;54412;51.206;6.888;2022-12-05T05:45:07;100981.06;;;4.74;77.40
10460;BME280;54412;51.206;6.888;2022-12-05T05:47:33;100988.22;;;4.66;76.85
10460;BME280;54412;51.206;6.888;2022-12-05T05:49:59;100990.72;;;4.70;77.34
10460;BME280;54412;51.206;6.888;2022-12-05T05:52:24;100987.00;;;4.82;77.50
10460;BME280;54412;51.206;6.888;2022-12-05T05:54:50;100993.81;;;4.89;78.59
10460;BME280;54412;51.206;6.888;2022-12-05T05:57:16;100980.66;;;5.31;77.32
10460;BME280;54412;51.206;6.888;2022-12-05T05:59:41;100986.72;;;5.33;76.20
10460;BME280;54412;51.206;6.888;2022-12-05T06:02:07;100994.47;;;5.37;75.41
10460;BME280;54412;51.206;6.888;2022-12-05T06:04:34;100994.41;;;5.01;76.51
10460;BME280;54412;51.206;6.888;2022-12-05T06:06:59;101002.63;;;4.85;76.89
10460;BME280;54412;51.206;6.888;2022-12-05T06:09:25;100998.16;;;4.90;76.98
10460;BME280;54412;51.206;6.888;2022-12-05T06:11:51;100999.25;;;4.80;76.19
10460;BME280;54412;51.206;6.888;2022-12-05T06:14:16;101007.41;;;4.63;77.27
10460;BME280;54412;51.206;6.888;2022-12-05T06:16:42;100996.66;;;4.77;77.10
10460;BME280;54412;51.206;6.888;2022-12-05T06:19:08;100996.72;;;4.75;77.61
10460;BME280;54412;51.206;6.888;2022-12-05T06:21:33;100999.13;;;4.84;76.96
10460;BME280;54412;51.206;6.888;2022-12-05T06:23:59;101003.78;;;4.70;76.72
10460;BME280;54412;51.206;6.888;2022-12-05T06:26:25;101009.06;;;4.69;76.24
10460;BME280;54412;51.206;6.888;2022-12-05T06:28:50;101005.44;;;4.74;76.32
10460;BME280;54412;51.206;6.888;2022-12-05T06:31:21;101015.97;;;4.70;76.95
10460;BME280;54412;51.206;6.888;2022-12-05T06:33:47;101012.50;;;4.71;77.58
10460;BME280;54412;51.206;6.888;2022-12-05T06:36:18;101009.41;;;4.51;78.32
10460;BME280;54412;51.206;6.888;2022-12-05T06:38:44;101011.66;;;4.69;77.84
10460;BME280;54412;51.206;6.888;2022-12-05T06:41:16;101014.59;;;4.52;77.65
10460;BME280;54412;51.206;6.888;2022-12-05T06:43:42;101017.06;;;4.60;77.53
10460;BME280;54412;51.206;6.888;2022-12-05T06:46:10;101019.66;;;4.61;77.20
10460;BME280;54412;51.206;6.888;2022-12-05T06:48:37;101022.25;;;4.61;77.92
10460;BME280;54412;51.206;6.888;2022-12-05T06:51:03;101022.81;;;4.77;76.78
10460;BME280;54412;51.206;6.888;2022-12-05T06:53:31;101025.59;;;4.69;77.20
10460;BME280;54412;51.206;6.888;2022-12-05T06:56:04;101034.50;;;4.58;76.59
10460;BME280;54412;51.206;6.888;2022-12-05T06:58:30;101034.63;;;4.52;77.30
10460;BME280;54412;51.206;6.888;2022-12-05T07:00:56;101033.22;;;4.34;77.74
10460;BME280;54412;51.206;6.888;2022-12-05T07:03:41;101033.66;;;4.59;77.28
10460;BME280;54412;51.206;6.888;2022-12-05T07:06:08;101027.94;;;4.39;78.10
10460;BME280;54412;51.206;6.888;2022-12-05T07:08:34;101036.78;;;4.30;78.28
10460;BME280;54412;51.206;6.888;2022-12-05T07:11:02;101029.56;;;4.43;78.16
10460;BME280;54412;51.206;6.888;2022-12-05T07:13:28;101036.19;;;4.62;77.09
10460;BME280;54412;51.206;6.888;2022-12-05T07:15:53;101040.97;;;4.39;77.81
10460;BME280;54412;51.206;6.888;2022-12-05T07:18:19;101044.31;;;4.47;77.88
10460;BME280;54412;51.206;6.888;2022-12-05T07:20:59;101047.84;;;4.43;77.46
10460;BME280;54412;51.206;6.888;2022-12-05T07:23:25;101053.50;;;4.67;77.25
10460;BME280;54412;51.206;6.888;2022-12-05T07:25:51;101058.00;;;4.59;77.18
10460;BME280;54412;51.206;6.888;2022-12-05T07:28:17;101058.78;;;4.63;76.92
10460;BME280;54412;51.206;6.888;2022-12-05T07:30:43;101060.75;;;4.52;77.58
10460;BME280;54412;51.206;6.888;2022-12-05T07:33:09;101062.94;;;4.74;76.99
10460;BME280;54412;51.206;6.888;2022-12-05T07:35:34;101063.00;;;4.71;77.03
10460;BME280;54412;51.206;6.888;2022-12-05T07:38:00;101060.34;;;4.73;76.68
10460;BME280;54412;51.206;6.888;2022-12-05T07:40:26;101057.13;;;4.60;76.66
10460;BME280;54412;51.206;6.888;2022-12-05T07:42:51;101060.50;;;4.65;76.48
10460;BME280;54412;51.206;6.888;2022-12-05T07:45:21;101059.09;;;4.46;76.93
10460;BME280;54412;51.206;6.888;2022-12-05T07:47:46;101065.75;;;4.64;76.48
10460;BME280;54412;51.206;6.888;2022-12-05T07:50:13;101070.66;;;4.79;76.91
10460;BME280;54412;51.206;6.888;2022-12-05T07:52:40;101073.31;;;4.77;75.81
10460;BME280;54412;51.206;6.888;2022-12-05T07:55:07;101075.94;;;4.77;75.59
10460;BME280;54412;51.206;6.888;2022-12-05T07:57:32;101073.22;;;4.83;74.31
10460;BME280;54412;51.206;6.888;2022-12-05T07:59:58;101074.69;;;4.51;75.25
10460;BME280;54412;51.206;6.888;2022-12-05T08:02:24;101081.56;;;4.56;75.35
10460;BME280;54412;51.206;6.888;2022-12-05T08:04:49;101083.69;;;4.36;75.71
10460;BME280;54412;51.206;6.888;2022-12-05T08:07:15;101081.94;;;4.37;75.21
10460;BME280;54412;51.206;6.888;2022-12-05T08:09:41;101085.41;;;4.36;75.32
10460;BME280;54412;51.206;6.888;2022-12-05T08:12:07;101092.28;;;4.41;75.95
10460;BME280;54412;51.206;6.888;2022-12-05T08:14:33;101087.91;;;4.43;75.99
10460;BME280;54412;51.206;6.888;2022-12-05T08:16:58;101099.44;;;4.30;76.72
10460;BME280;54412;51.206;6.888;2022-12-05T08:19:24;101095.31;;;4.17;76.84
10460;BME280;54412;51.206;6.888;2022-12-05T08:21:50;101098.63;;;4.28;76.79
10460;BME280;54412;51.206;6.888;2022-12-05T08:24:16;101096.97;;;4.21;76.20
10460;BME280;54412;51.206;6.888;2022-12-05T08:26:42;101106.47;;;4.28;76.04
10460;BME280;54412;51.206;6.888;2022-12-05T08:29:12;101110.03;;;4.21;76.32
10460;BME280;54412;51.206;6.888;2022-12-05T08:31:45;101114.38;;;4.22;76.18
10460;BME280;54412;51.206;6.888;2022-12-05T08:34:15;101116.88;;;4.30;76.23
10460;BME280;54412;51.206;6.888;2022-12-05T08:36:42;101114.28;;;4.28;76.17
10460;BME280;54412;51.206;6.888;2022-12-05T08:39:12;101120.41;;;4.25;76.42
10460;BME280;54412;51.206;6.888;2022-12-05T08:41:44;101125.50;;;4.35;75.78
10460;BME280;54412;51.206;6.888;2022-12-05T08:44:11;101124.41;;;4.46;75.46
10460;BME280;54412;51.206;6.888;2022-12-05T08:46:42;101132.50;;;4.31;75.85
10460;BME280;54412;51.206;6.888;2022-12-05T08:49:10;101130.97;;;4.18;76.34
10460;BME280;54412;51.206;6.888;2022-12-05T08:51:36;101130.00;;;4.25;76.91
10460;BME280;54412;51.206;6.888;2022-12-05T08:54:04;101125.63;;;4.25;76.64
10460;BME280;54412;51.206;6.888;2022-12-05T08:56:30;101136.00;;;4.30;76.90
10460;BME280;54412;51.206;6.888;2022-12-05T08:58:58;101129.84;;;4.34;75.84
10460;BME280;54412;51.206;6.888;2022-12-05T09:01:24;101131.53;;;4.38;76.18
10460;BME280;54412;51.206;6.888;2022-12-05T09:04:00;101137.66;;;4.34;76.40
10460;BME280;54412;51.206;6.888;2022-12-05T09:06:27;101141.88;;;4.43;76.11
10460;BME280;54412;51.206;6.888;2022-12-05T09:09:01;101131.44;;;4.43;76.00
10460;BME280;54412;51.206;6.888;2022-12-05T09:11:35;101129.75;;;4.40;76.03
10460;BME280;54412;51.206;6.888;2022-12-05T09:14:03;101134.91;;;4.43;76.03
10460;BME280;54412;51.206;6.888;2022-12-05T09:16:35;101142.94;;;4.33;76.49
10460;BME280;54412;51.206;6.888;2022-12-05T09:19:01;101136.00;;;4.32;76.86
10460;BME280;54412;51.206;6.888;2022-12-05T09:21:30;101143.53;;;4.50;76.17
10460;BME280;54412;51.206;6.888;2022-12-05T09:23:59;101142.88;;;4.37;76.58
10460;BME280;54412;51.206;6.888;2022-12-05T09:26:27;101140.25;;;4.36;76.13
10460;BME280;54412;51.206;6.888;2022-12-05T09:28:54;101152.41;;;4.38;76.65
10460;BME280;54412;51.206;6.888;2022-12-05T09:31:23;101157.06;;;4.70;75.52
10460;BME280;54412;51.206;6.888;2022-12-05T09:33:51;101148.69;;;4.53;76.13
10460;BME280;54412;51.206;6.888;2022-12-05T09:36:29;101152.22;;;4.49;75.59
10460;BME280;54412;51.206;6.888;2022-12-05T09:39:03;101152.31;;;4.44;76.00
10460;BME280;54412;51.206;6.888;2022-12-05T09:44:42;101151.31;;;4.51;75.90
10460;BME280;54412;51.206;6.888;2022-12-05T09:50:14;101147.16;;;4.40;76.69
10460;BME280;54412;51.206;6.888;2022-12-05T09:53:05;101149.63;;;4.49;76.71
10460;BME280;54412;51.206;6.888;2022-12-05T09:58:46;101143.50;;;4.51;76.61
10460;BME280;54412;51.206;6.888;2022-12-05T10:05:07;101144.97;;;4.66;75.55
10460;BME280;54412;51.206;6.888;2022-12-05T10:08:15;101152.19;;;4.50;76.68
10460;BME280;54412;51.206;6.888;2022-12-05T10:10:58;101150.22;;;4.63;76.94
10460;BME280;54412;51.206;6.888;2022-12-05T10:16:18;101147.19;;;4.87;76.08
10460;BME280;54412;51.206;6.888;2022-12-05T10:18:52;101143.94;;;4.74;76.11
10460;BME280;54412;51.206;6.888;2022-12-05T10:21:36;101141.91;;;4.90;76.11
10460;BME280;54412;51.206;6.888;2022-12-05T10:24:14;101146.34;;;4.85;75.78
10460;BME280;54412;51.206;6.888;2022-12-05T10:26:49;101142.41;;;5.08;76.01
10460;BME280;54412;51.206;6.888;2022-12-05T10:29:44;101143.50;;;4.97;75.36
10460;BME280;54412;51.206;6.888;2022-12-05T10:32:28;101142.31;;;5.14;75.22
10460;BME280;54412;51.206;6.888;2022-12-05T10:35:14;101145.28;;;4.95;75.61
10460;BME280;54412;51.206;6.888;2022-12-05T10:37:50;101144.16;;;5.08;76.11
10460;BME280;54412;51.206;6.888;2022-12-05T10:40:17;101152.16;;;5.00;74.97
10460;BME280;54412;51.206;6.888;2022-12-05T10:42:44;101143.00;;;5.22;75.90
10460;BME280;54412;51.206;6.888;2022-12-05T10:45:21;101143.53;;;4.95;76.18
10460;BME280;54412;51.206;6.888;2022-12-05T10:47:53;101142.72;;;4.92;75.98
10460;BME280;54412;51.206;6.888;2022-12-05T10:50:28;101149.94;;;4.79;77.26
10460;BME280;54412;51.206;6.888;2022-12-05T10:52:58;101153.63;;;4.68;77.38
10460;BME280;54412;51.206;6.888;2022-12-05T10:55:51;101156.06;;;4.78;77.30
10460;BME280;54412;51.206;6.888;2022-12-05T10:58:28;101158.56;;;4.84;76.86
10460;BME280;54412;51.206;6.888;2022-12-05T11:01:06;101155.78;;;4.93;77.01
10460;BME280;54412;51.206;6.888;2022-12-05T11:03:36;101151.91;;;4.67;77.59
10460;BME280;54412;51.206;6.888;2022-12-05T11:06:33;101145.59;;;4.80;77.14
10460;BME280;54412;51.206;6.888;2022-12-05T11:09:33;101139.69;;;4.69;77.55
10460;BME280;54412;51.206;6.888;2022-12-05T11:12:21;101151.69;;;4.79;77.02
10460;BME280;54412;51.206;6.888;2022-12-05T11:15:04;101144.09;;;5.11;76.36
10460;BME280;54412;51.206;6.888;2022-12-05T11:17:37;101154.13;;;4.88;77.06
10460;BME280;54412;51.206;6.888;2022-12-05T11:22:52;101141.38;;;4.73;77.67
10460;BME280;54412;51.206;6.888;2022-12-05T11:25:32;101142.94;;;4.81;78.09
10460;BME280;54412;51.206;6.888;2022-12-05T12:16:33;101129.66;;;4.92;77.28
10460;BME280;54412;51.206;6.888;2022-12-05T12:36:36;101132.41;;;4.84;78.53
10460;BME280;54412;51.206;6.888;2022-12-05T12:39:49;101129.81;;;4.84;78.64
10460;BME280;54412;51.206;6.888;2022-12-05T12:42:23;101123.47;;;4.97;77.96
10460;BME280;54412;51.206;6.888;2022-12-05T12:48:20;101126.03;;;4.99;77.83
10460;BME280;54412;51.206;6.888;2022-12-05T12:50:53;101120.13;;;4.89;78.27
10460;BME280;54412;51.206;6.888;2022-12-05T12:54:02;101130.34;;;5.01;77.77
10460;BME280;54412;51.206;6.888;2022-12-05T12:56:59;101126.88;;;5.01;78.15
10460;BME280;54412;51.206;6.888;2022-12-05T13:02:21;101129.66;;;4.92;78.28
10460;BME280;54412;51.206;6.888;2022-12-05T13:04:58;101125.25;;;4.95;78.07
10460;BME280;54412;51.206;6.888;2022-12-05T13:07:46;101124.16;;;5.07;77.53
10460;BME280;54412;51.206;6.888;2022-12-05T13:10:31;101123.63;;;4.88;78.13
10460;BME280;54412;51.206;6.888;2022-12-05T13:13:01;101120.59;;;5.09;77.45
10460;BME280;54412;51.206;6.888;2022-12-05T13:18:33;101121.47;;;5.10;77.05
10460;BME280;54412;51.206;6.888;2022-12-05T13:21:04;101117.38;;;4.97;77.48
10460;BME280;54412;51.206;6.888;2022-12-05T13:23:36;101121.94;;;4.86;77.81
10460;BME280;54412;51.206;6.888;2022-12-05T13:26:10;101119.47;;;4.78;78.51
10460;BME280;54412;51.206;6.888;2022-12-05T13:28:57;101114.38;;;4.72;77.99
10460;BME280;54412;51.206;6.888;2022-12-05T13:31:37;101116.59;;;4.92;76.78
10460;BME280;54412;51.206;6.888;2022-12-05T13:34:04;101123.81;;;4.79;77.82
10460;BME280;54412;51.206;6.888;2022-12-05T13:36:39;101122.31;;;4.66;78.19
10460;BME280;54412;51.206;6.888;2022-12-05T13:39:24;101120.56;;;4.67;77.87
10460;BME280;54412;51.206;6.888;2022-12-05T13:42:22;101127.78;;;4.53;78.00
10460;BME280;54412;51.206;6.888;2022-12-05T13:45:07;101129.28;;;4.67;77.25
10460;BME280;54412;51.206;6.888;2022-12-05T13:50:40;101138.28;;;4.51;77.27
10460;BME280;54412;51.206;6.888;2022-12-05T13:53:40;101142.56;;;4.54;76.65
10460;BME280;54412;51.206;6.888;2022-12-05T13:58:49;101147.31;;;4.31;77.78
10460;BME280;54412;51.206;6.888;2022-12-05T14:09:29;101145.44;;;4.39;77.44
10460;BME280;54412;51.206;6.888;2022-12-05T14:17:44;101141.19;;;4.33;76.91
10460;BME280;54412;51.206;6.888;2022-12-05T14:21:00;101145.63;;;4.26;77.15
10460;BME280;54412;51.206;6.888;2022-12-05T14:27:09;101151.59;;;4.35;76.77
10460;BME280;54412;51.206;6.888;2022-12-05T14:30:05;101151.03;;;4.16;77.23
10460;BME280;54412;51.206;6.888;2022-12-05T14:32:39;101152.59;;;4.28;77.28
10460;BME280;54412;51.206;6.888;2022-12-05T14:35:12;101148.31;;;4.22;77.33
10460;BME280;54412;51.206;6.888;2022-12-05T14:37:54;101155.34;;;4.18;77.51
10460;BME280;54412;51.206;6.888;2022-12-05T14:40:38;101153.53;;;4.22;77.14
10460;BME280;54412;51.206;6.888;2022-12-05T14:43:17;101153.53;;;4.22;76.79
10460;BME280;54412;51.206;6.888;2022-12-05T14:48:39;101156.31;;;4.11;76.78
10460;BME280;54412;51.206;6.888;2022-12-05T14:54:06;101164.31;;;3.99;76.72
10460;BME280;54412;51.206;6.888;2022-12-05T14:56:48;101161.63;;;4.05;76.72
10460;BME280;54412;51.206;6.888;2022-12-05T15:02:20;101174.81;;;3.96;76.27
10460;BME280;54412;51.206;6.888;2022-12-05T15:04:58;101172.06;;;4.05;76.20
10460;BME280;54412;51.206;6.888;2022-12-05T15:07:32;101174.78;;;3.98;76.49
10460;BME280;54412;51.206;6.888;2022-12-05T15:10:03;101173.25;;;3.83;76.67
10460;BME280;54412;51.206;6.888;2022-12-05T15:12:45;101181.78;;;3.96;77.02
10460;BME280;54412;51.206;6.888;2022-12-05T15:15:35;101188.59;;;4.07;76.35
10460;BME280;54412;51.206;6.888;2022-12-05T15:18:25;101180.00;;;4.01;76.42
10460;BME280;54412;51.206;6.888;2022-12-05T15:23:46;101184.25;;;4.05;76.34
10460;BME280;54412;51.206;6.888;2022-12-05T15:26:49;101195.78;;;3.92;76.76
10460;BME280;54412;51.206;6.888;2022-12-05T15:29:28;101191.31;;;3.98;76.46
10460;BME280;54412;51.206;6.888;2022-12-05T15:35:00;101187.03;;;3.93;76.95
10460;BME280;54412;51.206;6.888;2022-12-05T15:37:50;101191.53;;;3.83;77.00
10460;BME280;54412;51.206;6.888;2022-12-05T15:40:20;101196.75;;;3.85;76.85
10460;BME280;54412;51.206;6.888;2022-12-05T15:42:55;101195.16;;;3.73;77.03
10460;BME280;54412;51.206;6.888;2022-12-05T15:45:28;101197.66;;;3.81;76.84
10460;BME280;54412;51.206;6.888;2022-12-05T15:50:40;101201.97;;;3.82;76.78
10460;BME280;54412;51.206;6.888;2022-12-05T15:53:31;101194.09;;;3.88;77.02
10460;BME280;54412;51.206;6.888;2022-12-05T15:58:39;101208.97;;;3.80;76.71
10460;BME280;54412;51.206;6.888;2022-12-05T16:01:16;101202.66;;;3.96;76.87
10460;BME280;54412;51.206;6.888;2022-12-05T16:06:41;101205.50;;;3.81;76.99
10460;BME280;54412;51.206;6.888;2022-12-05T16:09:14;101207.31;;;3.73;76.97
10460;BME280;54412;51.206;6.888;2022-12-05T16:12:02;101215.78;;;3.91;76.65
10460;BME280;54412;51.206;6.888;2022-12-05T16:14:37;101224.63;;;3.80;76.73
10460;BME280;54412;51.206;6.888;2022-12-05T16:17:06;101211.69;;;3.72;76.84